createdAt,value
2023-01-21T00:01:16.886Z,16.02
2023-01-21T00:03:45.355Z,14.77
2023-01-21T00:06:16.712Z,16.35
2023-01-21T00:08:44.516Z,14.77
2023-01-21T00:11:15.253Z,13.93
2023-01-21T00:13:44.255Z,14.68
2023-01-21T00:16:12.566Z,13.80
2023-01-21T00:18:40.151Z,9.70
2023-01-21T00:21:07.827Z,12.00
2023-01-21T00:23:35.391Z,15.98
2023-01-21T00:26:05.353Z,12.73
2023-01-21T00:28:34.418Z,12.30
2023-01-21T00:31:04.433Z,15.10
2023-01-21T00:33:32.660Z,9.75
2023-01-21T00:36:04.928Z,11.80
2023-01-21T00:38:32.784Z,9.20
2023-01-21T00:41:09.525Z,9.35
2023-01-21T00:43:37.671Z,14.00
2023-01-21T00:46:06.011Z,14.10
2023-01-21T00:48:33.480Z,13.30
2023-01-21T00:51:01.395Z,13.05
2023-01-21T00:53:34.679Z,12.63
2023-01-21T00:56:04.723Z,13.90
2023-01-21T00:58:32.779Z,17.63
2023-01-21T01:01:09.552Z,14.73
2023-01-21T01:03:37.872Z,13.45
2023-01-21T01:06:20.071Z,11.38
2023-01-21T01:08:49.619Z,10.40
2023-01-21T01:11:17.890Z,15.65
2023-01-21T01:13:45.492Z,13.30
2023-01-21T01:16:15.219Z,17.67
2023-01-21T01:18:43.367Z,11.77
2023-01-21T01:21:13.069Z,13.95
2023-01-21T01:23:40.881Z,21.08
2023-01-21T01:26:11.927Z,20.33
2023-01-21T01:33:27.690Z,15.50
2023-01-21T01:35:55.464Z,16.83
2023-01-21T01:38:23.378Z,15.63
2023-01-21T01:40:53.260Z,16.38
2023-01-21T01:43:26.385Z,13.82
2023-01-21T01:45:54.567Z,13.63
2023-01-21T01:48:29.073Z,13.60
2023-01-21T01:51:01.366Z,20.63
2023-01-21T01:53:30.886Z,17.50
2023-01-21T01:55:59.842Z,17.92
2023-01-21T01:58:29.024Z,15.45
2023-01-21T02:00:56.821Z,13.70
2023-01-21T02:03:43.674Z,10.88
2023-01-21T02:06:16.376Z,15.50
2023-01-21T02:08:46.806Z,10.98
2023-01-21T02:11:17.562Z,15.13
2023-01-21T02:13:50.716Z,10.43
2023-01-21T02:16:32.469Z,11.05
2023-01-21T02:19:19.665Z,13.85
2023-01-21T02:22:13.466Z,11.93
2023-01-21T02:25:28.779Z,16.23
2023-01-21T02:28:23.282Z,14.27
2023-01-21T02:31:25.825Z,12.65
2023-01-21T02:34:05.197Z,14.18
2023-01-21T02:36:57.714Z,14.55
2023-01-21T02:39:34.973Z,13.82
2023-01-21T02:42:48.320Z,11.57
2023-01-21T02:45:34.775Z,15.32
2023-01-21T02:48:14.623Z,17.60
2023-01-21T02:50:46.097Z,11.70
2023-01-21T02:53:31.817Z,9.98
2023-01-21T02:56:12.568Z,14.05
2023-01-21T02:58:44.807Z,13.93
2023-01-21T03:01:37.777Z,10.50
2023-01-21T03:04:14.266Z,14.88
2023-01-21T03:06:50.712Z,17.92
2023-01-21T03:09:27.783Z,13.75
2023-01-21T03:12:26.005Z,17.92
2023-01-21T03:15:30.065Z,13.80
2023-01-21T03:18:07.459Z,14.40
2023-01-21T03:20:41.022Z,17.23
2023-01-21T03:23:17.769Z,14.75
2023-01-21T03:25:47.212Z,11.23
2023-01-21T03:28:21.373Z,13.02
2023-01-21T03:31:05.185Z,14.55
2023-01-21T03:33:36.476Z,16.60
2023-01-21T03:36:13.164Z,14.70
2023-01-21T03:38:45.324Z,13.27
2023-01-21T03:41:18.520Z,15.90
2023-01-21T03:43:46.225Z,19.02
2023-01-21T03:46:32.223Z,15.57
2023-01-21T03:49:32.216Z,16.05
2023-01-21T03:52:02.858Z,14.13
2023-01-21T03:54:31.712Z,15.60
2023-01-21T03:56:59.156Z,13.73
2023-01-21T03:59:26.768Z,13.25
2023-01-21T04:01:54.153Z,20.83
2023-01-21T04:04:21.505Z,17.48
2023-01-21T04:06:49.113Z,15.13
2023-01-21T04:09:16.352Z,20.75
2023-01-21T04:11:43.719Z,18.63
2023-01-21T04:14:11.134Z,19.45
2023-01-21T04:16:41.263Z,18.77
2023-01-21T04:19:08.961Z,17.33
2023-01-21T04:21:36.377Z,16.85
2023-01-21T04:24:03.908Z,15.68
2023-01-21T04:26:31.518Z,20.50
2023-01-21T04:28:58.829Z,15.35
2023-01-21T04:31:26.156Z,15.32
2023-01-21T04:33:53.666Z,18.35
2023-01-21T04:36:21.066Z,18.35
2023-01-21T04:38:48.466Z,13.63
2023-01-21T04:41:16.015Z,14.25
2023-01-21T04:43:43.362Z,17.13
2023-01-21T04:46:10.741Z,20.02
2023-01-21T04:48:38.367Z,15.35
2023-01-21T04:51:06.572Z,14.75
2023-01-21T04:53:34.264Z,17.85
2023-01-21T04:56:02.072Z,18.67
2023-01-21T04:58:29.529Z,16.92
2023-01-21T05:00:56.876Z,21.88
2023-01-21T05:03:24.328Z,18.42
2023-01-21T05:05:51.908Z,19.08
2023-01-21T05:08:19.512Z,14.48
2023-01-21T05:10:47.018Z,16.60
2023-01-21T05:13:14.553Z,15.73
2023-01-21T05:15:42.126Z,22.30
2023-01-21T05:18:09.714Z,15.98
2023-01-21T05:20:36.968Z,22.13
2023-01-21T05:23:04.482Z,17.83
2023-01-21T05:25:32.019Z,18.60
2023-01-21T05:27:59.612Z,22.30
2023-01-21T05:30:27.220Z,21.95
2023-01-21T05:32:55.366Z,18.60
2023-01-21T05:35:24.118Z,17.80
2023-01-21T05:37:51.664Z,21.52
2023-01-21T05:40:19.709Z,19.10
2023-01-21T05:42:47.559Z,20.30
2023-01-21T05:45:14.916Z,24.70
2023-01-21T05:47:42.905Z,23.63
2023-01-21T05:50:11.415Z,19.67
2023-01-21T05:52:38.965Z,21.80
2023-01-21T05:55:07.320Z,21.15
2023-01-21T05:57:35.062Z,25.42
2023-01-21T06:00:02.881Z,17.23
2023-01-21T06:02:30.580Z,21.63
2023-01-21T06:04:57.909Z,18.50
2023-01-21T06:07:25.466Z,25.30
2023-01-21T06:09:53.016Z,24.73
2023-01-21T06:12:20.602Z,25.45
2023-01-21T06:14:48.010Z,29.00
2023-01-21T06:17:15.715Z,25.55
2023-01-21T06:19:43.004Z,19.75
2023-01-21T06:22:17.619Z,19.83
2023-01-21T06:24:45.482Z,24.95
2023-01-21T06:27:13.121Z,25.75
2023-01-21T06:29:40.751Z,21.55
2023-01-21T06:32:08.467Z,27.42
2023-01-21T06:34:35.813Z,24.60
2023-01-21T06:37:03.416Z,25.15
2023-01-21T06:39:31.004Z,19.08
2023-01-21T06:41:58.565Z,28.75
2023-01-21T06:44:26.017Z,21.92
2023-01-21T06:47:00.638Z,24.05
2023-01-21T06:49:28.865Z,20.50
2023-01-21T06:51:56.604Z,37.88
2023-01-21T06:54:24.185Z,22.63
2023-01-21T06:56:51.676Z,23.48
2023-01-21T06:59:19.210Z,24.17
2023-01-21T07:01:46.646Z,22.55
2023-01-21T07:04:14.215Z,21.73
2023-01-21T07:06:41.864Z,22.65
2023-01-21T07:09:09.402Z,23.58
2023-01-21T07:11:36.891Z,21.27
2023-01-21T07:14:04.444Z,24.20
2023-01-21T07:16:32.058Z,24.80
2023-01-21T07:18:59.468Z,28.85
2023-01-21T07:21:26.913Z,22.33
2023-01-21T07:23:55.457Z,22.35
2023-01-21T07:26:23.313Z,27.95
2023-01-21T07:28:50.791Z,22.50
2023-01-21T07:31:18.167Z,27.92
2023-01-21T07:33:45.612Z,24.63
2023-01-21T07:36:13.222Z,29.27
2023-01-21T07:38:40.716Z,26.63
2023-01-21T07:41:08.419Z,21.60
2023-01-21T07:43:35.756Z,25.83
2023-01-21T07:46:03.270Z,23.42
2023-01-21T07:48:30.960Z,25.08
2023-01-21T07:50:59.648Z,22.83
2023-01-21T07:53:27.526Z,21.83
2023-01-21T07:55:55.422Z,23.42
2023-01-21T07:58:22.759Z,27.95
2023-01-21T08:00:50.272Z,28.13
2023-01-21T08:03:21.869Z,25.17
2023-01-21T08:05:51.034Z,26.98
2023-01-21T08:08:19.331Z,30.10
2023-01-21T08:10:52.561Z,29.90
2023-01-21T08:13:20.573Z,28.05
2023-01-21T08:20:12.315Z,34.03
2023-01-21T08:22:40.157Z,28.77
2023-01-21T08:25:08.358Z,25.60
2023-01-21T08:27:36.018Z,30.73
2023-01-21T08:30:03.912Z,24.30
2023-01-21T08:32:34.324Z,22.90
2023-01-21T08:35:01.913Z,26.33
2023-01-21T08:37:29.256Z,24.85
2023-01-21T08:39:56.818Z,27.20
2023-01-21T08:42:24.305Z,25.30
2023-01-21T08:44:51.812Z,44.83
2023-01-21T08:47:19.622Z,32.58
2023-01-21T08:49:47.311Z,27.83
2023-01-21T08:52:17.127Z,24.27
2023-01-21T08:54:44.562Z,29.48
2023-01-21T08:57:12.457Z,32.50
2023-01-21T08:59:40.201Z,29.58
2023-01-21T09:02:08.694Z,28.38
2023-01-21T09:04:36.354Z,28.42
2023-01-21T09:07:04.606Z,32.40
2023-01-21T09:09:32.004Z,24.98
2023-01-21T09:11:59.706Z,30.70
2023-01-21T09:14:27.862Z,30.17
2023-01-21T09:16:55.958Z,23.17
2023-01-21T09:19:25.110Z,30.48
2023-01-21T09:21:55.674Z,26.25
2023-01-21T09:24:23.818Z,24.00
2023-01-21T09:26:51.456Z,25.88
2023-01-21T09:29:19.006Z,28.27
2023-01-21T09:31:46.464Z,25.77
2023-01-21T09:34:13.988Z,27.85
2023-01-21T09:36:41.507Z,30.30
2023-01-21T09:39:09.153Z,33.88
2023-01-21T09:42:05.804Z,29.40
2023-01-21T09:44:45.009Z,25.58
2023-01-21T09:47:24.054Z,29.45
2023-01-21T09:50:07.058Z,23.60
2023-01-21T09:52:46.866Z,30.33
2023-01-21T09:55:26.509Z,27.00
2023-01-21T09:58:12.655Z,28.35
2023-01-21T10:00:56.057Z,24.48
2023-01-21T10:03:42.515Z,28.02
2023-01-21T10:06:32.019Z,25.17
2023-01-21T10:09:17.032Z,22.85
2023-01-21T10:12:09.623Z,22.52
2023-01-21T10:14:50.729Z,30.63
2023-01-21T10:17:53.025Z,23.35
2023-01-21T10:20:35.116Z,19.67
2023-01-21T10:23:15.208Z,26.83
2023-01-21T10:25:44.477Z,25.70
2023-01-21T10:28:19.625Z,26.15
2023-01-21T10:30:53.807Z,24.83
2023-01-21T10:33:29.334Z,23.05
2023-01-21T10:36:40.153Z,24.25
2023-01-21T10:39:27.026Z,25.15
2023-01-21T10:42:00.865Z,27.92
2023-01-21T10:44:37.517Z,24.63
2023-01-21T10:47:20.421Z,21.08
2023-01-21T10:49:56.983Z,23.67
2023-01-21T10:52:50.293Z,23.73
2023-01-21T10:55:45.819Z,24.10
2023-01-21T10:58:28.448Z,21.83
2023-01-21T11:01:01.674Z,22.95
2023-01-21T11:03:31.563Z,27.73
2023-01-21T11:06:01.174Z,25.90
2023-01-21T11:08:31.444Z,26.63
2023-01-21T11:11:00.767Z,30.52
2023-01-21T11:13:29.093Z,20.55
2023-01-21T11:15:59.466Z,22.30
2023-01-21T11:18:38.016Z,27.73
2023-01-21T11:21:21.971Z,20.05
2023-01-21T11:32:52.801Z,22.27
2023-01-21T11:35:23.497Z,22.70
2023-01-21T11:37:51.119Z,17.90
2023-01-21T11:40:26.060Z,19.10
2023-01-21T11:42:57.451Z,19.35
2023-01-21T11:45:38.791Z,24.17
2023-01-21T11:48:23.657Z,23.50
2023-01-21T11:51:07.081Z,19.75
2023-01-21T11:53:35.092Z,17.00
2023-01-21T11:56:03.727Z,21.92
2023-01-21T11:58:41.624Z,18.52
2023-01-21T12:01:19.275Z,19.80
2023-01-21T12:03:52.437Z,20.48
2023-01-21T12:06:23.261Z,20.88
2023-01-21T12:08:53.898Z,17.73
2023-01-21T12:11:31.259Z,20.13
2023-01-21T12:14:30.049Z,19.60
2023-01-21T12:17:42.300Z,18.58
2023-01-21T12:20:32.473Z,18.58
2023-01-21T12:23:27.621Z,13.40
2023-01-21T12:26:12.554Z,16.00
2023-01-21T12:28:55.880Z,24.92
2023-01-21T12:31:42.893Z,19.50
2023-01-21T12:34:31.301Z,22.10
2023-01-21T12:37:13.937Z,19.77
2023-01-21T12:39:43.455Z,15.85
2023-01-21T12:42:31.656Z,19.75
2023-01-21T12:49:24.023Z,17.02
2023-01-21T12:51:59.806Z,20.02
2023-01-21T12:59:00.624Z,13.07
2023-01-21T13:01:42.872Z,14.43
2023-01-21T13:04:38.453Z,12.95
2023-01-21T13:07:17.413Z,12.30
2023-01-21T13:09:56.103Z,16.83
2023-01-21T13:12:26.503Z,16.90
2023-01-21T13:15:14.101Z,11.68
2023-01-21T13:17:44.609Z,14.80
2023-01-21T13:20:21.809Z,14.73
2023-01-21T13:23:37.484Z,15.70
2023-01-21T13:26:28.230Z,12.75
2023-01-21T13:29:18.548Z,15.15
2023-01-21T13:32:11.094Z,13.98
2023-01-21T13:35:07.697Z,14.05
2023-01-21T13:37:53.058Z,13.70
2023-01-21T13:40:39.650Z,12.80
2023-01-21T13:43:27.510Z,17.70
2023-01-21T13:46:12.969Z,13.00
2023-01-21T13:48:58.735Z,15.80
2023-01-21T13:51:50.548Z,15.20
2023-01-21T13:54:53.895Z,12.68
2023-01-21T13:57:43.106Z,11.82
2023-01-21T14:00:19.727Z,12.63
2023-01-21T14:02:58.973Z,13.82
2023-01-21T14:05:44.749Z,11.98
2023-01-21T14:08:24.976Z,14.20
2023-01-21T14:10:55.551Z,16.98
2023-01-21T14:14:04.996Z,15.07
2023-01-21T14:16:52.898Z,14.00
2023-01-21T14:20:10.803Z,13.85
2023-01-21T14:23:01.814Z,12.70
2023-01-21T14:25:34.797Z,16.35
2023-01-21T14:28:21.065Z,14.40
2023-01-21T14:31:02.517Z,17.13
2023-01-21T14:33:46.522Z,15.15
2023-01-21T14:36:36.103Z,14.43
2023-01-21T14:43:30.403Z,15.40
2023-01-21T14:46:00.540Z,22.00
2023-01-21T14:48:38.803Z,15.18
2023-01-21T14:51:06.387Z,15.48
2023-01-21T14:53:47.795Z,16.13
2023-01-21T14:56:32.303Z,16.10
2023-01-21T14:59:37.411Z,15.23
2023-01-21T15:02:34.278Z,16.50
2023-01-21T15:05:16.054Z,14.75
2023-01-21T15:07:46.494Z,10.57
2023-01-21T15:10:30.893Z,12.23
2023-01-21T15:13:02.683Z,11.82
2023-01-21T15:16:00.605Z,14.38
2023-01-21T15:18:37.199Z,13.43
2023-01-21T15:21:34.850Z,15.05
2023-01-21T15:24:21.301Z,13.32
2023-01-21T15:27:13.850Z,12.40
2023-01-21T15:30:06.104Z,13.85
2023-01-21T15:37:13.457Z,14.98
2023-01-21T15:39:41.446Z,19.38
2023-01-21T15:42:42.812Z,14.40
2023-01-21T15:45:13.402Z,12.57
2023-01-21T15:48:12.447Z,21.63
2023-01-21T15:50:59.244Z,14.52
2023-01-21T15:57:52.151Z,14.05
2023-01-21T16:00:19.992Z,14.90
2023-01-21T16:03:02.148Z,12.85
2023-01-21T16:05:54.493Z,13.35
2023-01-21T16:08:49.440Z,10.18
2023-01-21T16:11:42.967Z,13.80
2023-01-21T16:14:38.766Z,11.15
2023-01-21T16:17:32.689Z,10.93
2023-01-21T16:20:01.616Z,15.93
2023-01-21T16:27:23.051Z,14.20
2023-01-21T16:30:02.250Z,15.30
2023-01-21T16:32:32.424Z,9.82
2023-01-21T16:35:00.496Z,11.25
2023-01-21T16:37:29.746Z,18.27
2023-01-21T16:40:20.675Z,14.55
2023-01-21T16:43:14.109Z,12.95
2023-01-21T16:45:50.259Z,15.40
2023-01-21T16:48:30.098Z,15.02
2023-01-21T16:50:58.754Z,14.68
2023-01-21T16:53:26.541Z,14.48
2023-01-21T16:55:58.612Z,13.63
2023-01-21T16:58:34.247Z,16.73
2023-01-21T17:01:18.975Z,12.32
2023-01-21T17:03:49.948Z,19.23
2023-01-21T17:06:35.545Z,17.75
2023-01-21T17:09:07.106Z,16.60
2023-01-21T17:11:36.759Z,14.93
2023-01-21T17:14:09.947Z,16.03
2023-01-21T17:16:40.857Z,16.33
2023-01-21T17:19:22.152Z,18.50
2023-01-21T17:21:55.542Z,19.35
2023-01-21T17:24:33.996Z,15.55
2023-01-21T17:27:08.904Z,18.52
2023-01-21T17:29:36.643Z,20.15
2023-01-21T17:32:07.228Z,19.80
2023-01-21T17:34:37.001Z,17.83
2023-01-21T17:37:43.194Z,15.95
2023-01-21T17:40:42.235Z,18.98
2023-01-21T17:43:22.868Z,18.00
2023-01-21T17:45:53.244Z,18.65
2023-01-21T17:48:33.043Z,18.67
2023-01-21T17:51:12.978Z,19.70
2023-01-21T17:53:46.199Z,22.98
2023-01-21T17:56:13.892Z,23.98
2023-01-21T17:58:41.384Z,30.85
2023-01-21T18:01:09.691Z,19.13
2023-01-21T18:03:37.292Z,23.00
2023-01-21T18:06:09.696Z,26.75
2023-01-21T18:08:37.341Z,23.58
2023-01-21T18:11:07.049Z,26.33
2023-01-21T18:13:34.601Z,32.13
2023-01-21T18:16:02.740Z,33.00
2023-01-21T18:18:32.541Z,34.95
2023-01-21T18:21:00.054Z,35.13
2023-01-21T18:23:28.499Z,29.05
2023-01-21T18:25:56.341Z,34.92
2023-01-21T18:28:26.698Z,39.15
2023-01-21T18:30:56.490Z,38.13
2023-01-21T18:33:24.961Z,39.25
2023-01-21T18:35:52.960Z,37.30
2023-01-21T18:38:27.331Z,41.45
2023-01-21T18:40:55.896Z,36.40
2023-01-21T18:43:24.653Z,33.97
2023-01-21T18:45:54.120Z,48.85
2023-01-21T18:48:28.393Z,38.17
2023-01-21T18:50:56.241Z,40.53
2023-01-21T18:53:24.005Z,32.58
2023-01-21T18:55:54.061Z,37.13
2023-01-21T18:58:22.787Z,37.45
2023-01-21T19:00:50.995Z,40.35
2023-01-21T19:03:23.471Z,42.55
2023-01-21T19:05:52.404Z,42.05
2023-01-21T19:08:25.105Z,49.67
2023-01-21T19:10:52.817Z,56.67
2023-01-21T19:13:21.670Z,64.40
2023-01-21T19:15:50.961Z,53.95
2023-01-21T19:18:19.961Z,102.72
2023-01-21T19:20:50.754Z,117.00
2023-01-21T19:23:23.622Z,86.63
2023-01-21T19:25:55.982Z,75.80
2023-01-21T19:28:25.037Z,62.15
2023-01-21T19:30:55.877Z,66.63
2023-01-21T19:33:26.361Z,57.55
2023-01-21T19:36:11.582Z,56.85
2023-01-21T19:38:49.164Z,57.97
2023-01-21T19:41:17.849Z,51.75
2023-01-21T19:43:46.157Z,45.42
2023-01-21T19:46:22.979Z,49.08
2023-01-21T19:49:16.370Z,40.22
2023-01-21T19:51:44.701Z,38.58
2023-01-21T19:54:13.461Z,49.35
2023-01-21T19:56:44.980Z,39.90
2023-01-21T19:59:16.454Z,46.88
2023-01-21T20:01:48.552Z,44.90
2023-01-21T20:04:27.456Z,44.00
2023-01-21T20:07:04.351Z,52.42
2023-01-21T20:09:36.223Z,46.08
2023-01-21T20:12:11.580Z,49.75
2023-01-21T20:14:49.270Z,52.47
2023-01-21T20:22:02.917Z,44.05
2023-01-21T20:24:33.942Z,46.80
2023-01-21T20:29:30.288Z,46.80
2023-01-21T20:31:58.415Z,48.45
2023-01-21T20:34:27.749Z,36.65
2023-01-21T20:36:59.321Z,59.83
2023-01-21T20:39:32.396Z,48.80
2023-01-21T20:42:00.477Z,41.25
2023-01-21T20:44:29.357Z,40.58
2023-01-21T20:47:00.006Z,47.42
2023-01-21T20:53:52.441Z,38.03
2023-01-21T20:56:31.583Z,38.70
2023-01-21T20:58:59.591Z,38.30
2023-01-21T21:01:28.644Z,39.42
2023-01-21T21:03:55.974Z,45.47
2023-01-21T21:06:26.990Z,43.88
2023-01-21T21:08:55.239Z,42.78
2023-01-21T21:11:23.426Z,44.60
2023-01-21T21:13:52.533Z,39.00
2023-01-21T21:16:29.899Z,40.28
2023-01-21T21:18:58.262Z,41.83
2023-01-21T21:21:25.939Z,42.83
2023-01-21T21:23:53.600Z,46.67
2023-01-21T21:26:27.141Z,47.92
2023-01-21T21:28:57.672Z,43.33
2023-01-21T21:31:32.077Z,38.95
2023-01-21T21:33:59.939Z,30.55
2023-01-21T21:36:27.604Z,38.15
2023-01-21T21:38:56.026Z,30.13
2023-01-21T21:41:44.429Z,33.97
2023-01-21T21:44:12.902Z,37.03
2023-01-21T21:46:59.606Z,30.85
2023-01-21T21:49:28.741Z,28.00
2023-01-21T21:51:57.264Z,34.45
2023-01-21T21:58:57.845Z,42.55
2023-01-21T22:01:30.404Z,47.13
2023-01-21T22:04:00.287Z,48.17
2023-01-21T22:06:28.939Z,41.88
2023-01-21T22:09:00.191Z,44.90
2023-01-21T22:11:29.288Z,46.05
2023-01-21T22:13:57.578Z,47.60
2023-01-21T22:16:27.924Z,32.40
2023-01-21T22:18:58.353Z,42.42
2023-01-21T22:21:31.948Z,39.65
2023-01-21T22:24:00.034Z,43.45
2023-01-21T22:26:34.419Z,43.13
2023-01-21T22:29:04.563Z,42.50
2023-01-21T22:31:36.070Z,37.55
2023-01-21T22:34:03.947Z,39.30
2023-01-21T22:36:32.818Z,36.22
2023-01-21T22:39:04.336Z,46.03
2023-01-21T22:41:31.951Z,39.35
2023-01-21T22:44:02.437Z,36.95
2023-01-21T22:46:30.687Z,36.53
2023-01-21T22:48:58.859Z,45.70
2023-01-21T22:51:27.191Z,45.60
2023-01-21T22:53:55.449Z,43.80
2023-01-21T22:56:39.967Z,39.00
2023-01-21T22:59:13.492Z,47.22
2023-01-21T23:01:42.236Z,38.75
2023-01-21T23:04:10.442Z,33.63
2023-01-21T23:06:38.605Z,37.80
2023-01-21T23:09:09.239Z,39.40
2023-01-21T23:11:39.784Z,40.47
2023-01-21T23:14:14.899Z,39.30
2023-01-21T23:16:43.082Z,43.17
2023-01-21T23:19:16.411Z,42.25
2023-01-21T23:21:44.463Z,39.50
2023-01-21T23:24:13.036Z,37.70
2023-01-21T23:26:40.729Z,37.35
2023-01-21T23:29:08.291Z,43.40
2023-01-21T23:31:35.945Z,40.90
2023-01-21T23:34:03.690Z,38.42
2023-01-21T23:36:31.244Z,35.95
2023-01-21T23:38:58.888Z,34.08
2023-01-21T23:41:26.996Z,39.65
2023-01-21T23:43:54.631Z,39.40
2023-01-21T23:46:22.223Z,40.75
2023-01-21T23:48:49.600Z,39.88
2023-01-21T23:51:17.840Z,42.50
2023-01-21T23:53:48.995Z,41.08
2023-01-21T23:56:24.745Z,36.00
2023-01-21T23:58:52.586Z,35.83
